Flight Track Log - Related Links

Times and Time Zones

All times are in EST time to prevent confusion due to time zone crossing. See the VP-BLX flight status page for this flight to view local times or setup timezone preferences in your user account.

Time Position Orientation Groundspeed Altitude Reporting Facility
EST Latitude Longitude Course Direction KTS MPH feet Rate Location/Type
Thu 03:40:00 AM 56.0751 37.4307 17° North  Level FlightAware Approximate
Thu 03:41:00 AM 56.0883 37.3020 301° West  Level FlightAware Approximate
Thu 03:42:00 AM 56.1557 37.1552 312° West  Level FlightAware Approximate
Thu 03:43:00 AM 56.2104 36.9925 308° West  Level FlightAware Approximate
Thu 03:44:00 AM 56.2754 36.8409 308° West  Level FlightAware Approximate
Thu 03:45:00 AM 56.3382 36.6862 305° West  Level FlightAware Approximate
Thu 03:46:00 AM 56.3996 36.5294 305° West  Level FlightAware Approximate
Thu 03:47:00 AM 56.4616 36.3731 308° West  Level FlightAware Approximate
Thu 03:48:00 AM 56.5269 36.2209 308° West  Level FlightAware Approximate
Thu 03:49:00 AM 56.5882 36.0634 304° West  Level FlightAware Approximate
Thu 03:50:00 AM 56.6474 35.9026 304° West  Level FlightAware Approximate
Thu 03:51:00 AM 56.7108 35.7474 308° West  Level FlightAware Approximate
Thu 03:52:00 AM 56.7763 35.5946 308° West  Level FlightAware Approximate
Thu 03:53:00 AM 56.8398 35.4387 305° West  Level FlightAware Approximate
Thu 03:54:00 AM 56.9001 35.2784 305° West  Level FlightAware Approximate
Thu 03:55:00 AM 56.9602 35.1175 304° West  Level FlightAware Approximate
Thu 03:56:00 AM 57.0202 34.9562 302° West  Level FlightAware Approximate
Thu 03:57:00 AM 57.0758 34.7896 302° West  Level FlightAware Approximate
Thu 03:58:00 AM 57.1338 34.6256 308° West  Level FlightAware Approximate
Thu 03:59:00 AM 57.1986 34.4701 308° West  Level FlightAware Approximate
Thu 04:00:00 AM 57.2574 34.3063 304° West  Level FlightAware Approximate
Thu 04:01:00 AM 57.3163 34.1423 304° West  Level FlightAware Approximate
Thu 04:02:00 AM 57.3753 33.9784 304° West  Level FlightAware Approximate
Thu 04:03:00 AM 57.4342 33.8139 304° West  Level FlightAware Approximate
Thu 04:04:00 AM 57.4928 33.6488 304° West  Level FlightAware Approximate
Thu 04:05:00 AM 57.5512 33.4832 303° West  Level FlightAware Approximate
Thu 04:06:00 AM 57.6094 33.3172 303° West  Level FlightAware Approximate
Thu 04:07:00 AM 57.6674 33.1505 303° West  Level FlightAware Approximate
Thu 04:08:00 AM 57.7251 32.9834 303° West  Level FlightAware Approximate
Thu 04:09:00 AM 57.7826 32.8157 303° West  Level FlightAware Approximate
Thu 04:10:00 AM 57.8399 32.6474 303° West  Level FlightAware Approximate
Thu 04:11:00 AM 57.8970 32.4787 303° West  Level FlightAware Approximate
Thu 04:12:00 AM 57.9539 32.3094 302° West  Level FlightAware Approximate
Thu 04:13:00 AM 58.0105 32.1395 302° West  Level FlightAware Approximate
Thu 04:14:00 AM 58.0669 31.9691 302° West  Level FlightAware Approximate
Thu 04:15:00 AM 58.1231 31.7982 302° West  Level FlightAware Approximate
Thu 04:16:00 AM 58.1791 31.6268 302° West  Level FlightAware Approximate
Thu 04:17:00 AM 58.2348 31.4548 302° West  Level FlightAware Approximate
Thu 04:18:00 AM 58.2903 31.2823 302° West  Level FlightAware Approximate
Thu 04:19:00 AM 58.3455 31.1092 301° West  Level FlightAware Approximate
Thu 04:20:00 AM 58.4005 30.9356 301° West  Level FlightAware Approximate
Thu 04:21:00 AM 58.4553 30.7614 301° West  Level FlightAware Approximate
Thu 04:22:00 AM 58.5099 30.5867 301° West  Level FlightAware Approximate
Thu 04:23:00 AM 58.5642 30.4115 301° West  Level FlightAware Approximate
Thu 04:24:00 AM 58.6183 30.2357 301° West  Level FlightAware Approximate
Thu 04:25:00 AM 58.6721 30.0594 300° West  Level FlightAware Approximate
Thu 04:26:00 AM 58.7257 29.8825 300° West  Level FlightAware Approximate
Thu 04:27:00 AM 58.7790 29.7051 300° West  Level FlightAware Approximate
Thu 04:28:00 AM 58.8321 29.5271 300° West  Level FlightAware Approximate
Thu 04:29:00 AM 58.8850 29.3486 300° West  Level FlightAware Approximate
Thu 04:30:00 AM 58.9376 29.1696 300° West  Level FlightAware Approximate
Thu 04:31:00 AM 58.9899 28.9900 300° West  Level FlightAware Approximate
Thu 04:32:00 AM 59.0421 28.8098 299° West  Level FlightAware Approximate
Thu 04:33:00 AM 59.0939 28.6291 299° West  Level FlightAware Approximate
Thu 04:34:00 AM 59.1455 28.4479 299° West  Level FlightAware Approximate
Thu 04:35:00 AM 59.1969 28.2661 299° West  Level FlightAware Approximate
Thu 04:36:00 AM 59.2480 28.0838 299° West  Level FlightAware Approximate
Thu 04:37:00 AM 59.2988 27.9009 299° West  Level FlightAware Approximate
Thu 04:38:00 AM 59.3494 27.7175 298° West  Level FlightAware Approximate
Thu 04:39:00 AM 59.3998 27.5336 298° West  Level FlightAware Approximate
Thu 04:40:00 AM 59.4498 27.3491 298° West  Level FlightAware Approximate
Thu 04:41:00 AM 59.4996 27.1640 298° West  Level FlightAware Approximate
Thu 04:42:00 AM 59.5492 26.9784 298° West  Level FlightAware Approximate
Thu 04:43:00 AM 59.5985 26.7922 298° West  Level FlightAware Approximate
Thu 04:44:00 AM 59.6475 26.6056 298° West  Level FlightAware Approximate
Thu 04:45:00 AM 59.6962 26.4183 297° West  Level FlightAware Approximate
Thu 04:46:00 AM 59.7447 26.2305 297° West  Level FlightAware Approximate
Thu 04:47:00 AM 59.7929 26.0422 297° West  Level FlightAware Approximate
Thu 04:48:00 AM 59.8409 25.8533 297° West  Level FlightAware Approximate
Thu 04:49:00 AM 59.8886 25.6639 297° West  Level FlightAware Approximate
Thu 04:50:00 AM 59.9360 25.4740 297° West  Level FlightAware Approximate
Thu 04:51:00 AM 59.9831 25.2835 296° West  Level FlightAware Approximate
Thu 04:52:00 AM 60.0300 25.0924 296° West  Level FlightAware Approximate
Thu 04:53:00 AM 60.0765 24.9009 296° West  Level FlightAware Approximate
Thu 04:54:00 AM 60.1228 24.7087 296° West  Level FlightAware Approximate
Thu 04:55:00 AM 60.1689 24.5161 296° West  Level FlightAware Approximate
Thu 04:56:00 AM 60.2146 24.3229 296° West  Level FlightAware Approximate
Thu 04:57:00 AM 60.2601 24.1292 295° West  Level FlightAware Approximate
Thu 04:58:00 AM 60.3052 23.9349 295° West  Level FlightAware Approximate
Thu 04:59:00 AM 60.3501 23.7401 295° West  Level FlightAware Approximate
Thu 05:00:00 AM 60.3947 23.5447 295° West  Level FlightAware Approximate
Thu 05:01:00 AM 60.4391 23.3489 295° West  Level FlightAware Approximate
Thu 05:02:00 AM 60.4831 23.1524 295° West  Level FlightAware Approximate
Thu 05:03:00 AM 60.5268 22.9555 294° West  Level FlightAware Approximate
Thu 05:04:00 AM 60.5703 22.7580 294° West  Level FlightAware Approximate
Thu 05:05:00 AM 60.6134 22.5600 294° West  Level FlightAware Approximate
Thu 05:06:00 AM 60.6563 22.3615 294° West  Level FlightAware Approximate
Thu 05:07:00 AM 60.6989 22.1624 294° West  Level FlightAware Approximate
Thu 05:08:00 AM 60.7412 21.9628 294° West  Level FlightAware Approximate
Thu 05:09:00 AM 60.7831 21.7627 293° West  Level FlightAware Approximate
Thu 05:10:00 AM 60.8248 21.5621 293° West  Level FlightAware Approximate
Thu 05:11:00 AM 60.8662 21.3609 293° West  Level FlightAware Approximate
Thu 05:12:00 AM 60.9073 21.1593 293° West  Level FlightAware Approximate
Thu 05:13:00 AM 60.9481 20.9571 293° West  Level FlightAware Approximate
Thu 05:14:00 AM 60.9885 20.7544 292° West  Level FlightAware Approximate
Thu 05:15:00 AM 61.0287 20.5511 292° West  Level FlightAware Approximate
Thu 05:16:00 AM 61.0686 20.3474 292° West  Level FlightAware Approximate
Thu 05:17:00 AM 61.1081 20.1431 292° West  Level FlightAware Approximate
Thu 05:18:00 AM 61.1474 19.9384 292° West  Level FlightAware Approximate
Thu 05:19:00 AM 61.1863 19.7331 292° West  Level FlightAware Approximate
Thu 05:20:00 AM 61.2249 19.5273 291° West  Level FlightAware Approximate
Thu 05:21:00 AM 61.2632 19.3210 291° West  Level FlightAware Approximate
Thu 05:22:00 AM 61.3012 19.1143 291° West  Level FlightAware Approximate
Thu 05:23:00 AM 61.3389 18.9070 291° West  Level FlightAware Approximate
Thu 05:24:00 AM 61.3763 18.6992 291° West  Level FlightAware Approximate
Thu 05:25:00 AM 61.4133 18.4909 290° West  Level FlightAware Approximate
Thu 05:26:00 AM 61.4501 18.2822 290° West  Level FlightAware Approximate
Thu 05:27:00 AM 61.4865 18.0729 290° West  Level FlightAware Approximate
Thu 05:28:00 AM 61.5226 17.8632 290° West  Level FlightAware Approximate
Thu 05:29:00 AM 61.5583 17.6529 290° West  Level FlightAware Approximate
Thu 05:30:00 AM 61.5938 17.4422 290° West  Level FlightAware Approximate
Thu 05:31:00 AM 61.6289 17.2310 289° West  Level FlightAware Approximate
Thu 05:32:00 AM 61.6637 17.0194 289° West  Level FlightAware Approximate
Thu 05:33:00 AM 61.6982 16.8072 289° West  Level FlightAware Approximate
Thu 05:34:00 AM 61.7323 16.5946 289° West  Level FlightAware Approximate
Thu 05:35:00 AM 61.7661 16.3815 289° West  Level FlightAware Approximate
Thu 05:36:00 AM 61.7996 16.1680 288° West  Level FlightAware Approximate
Thu 05:37:00 AM 61.8327 15.9539 288° West  Level FlightAware Approximate
Thu 05:38:00 AM 61.8655 15.7395 288° West  Level FlightAware Approximate
Thu 05:39:00 AM 61.8980 15.5245 288° West  Level FlightAware Approximate
Thu 05:40:00 AM 61.9301 15.3091 288° West  Level FlightAware Approximate
Thu 05:41:00 AM 61.9619 15.0933 287° West  Level FlightAware Approximate
Thu 05:42:00 AM 61.9934 14.8770 287° West  Level FlightAware Approximate
Thu 05:43:00 AM 62.0245 14.6603 287° West  Level FlightAware Approximate
Thu 05:44:00 AM 62.0553 14.4431 287° West  Level FlightAware Approximate
Thu 05:45:00 AM 62.0857 14.2255 287° West  Level FlightAware Approximate
Thu 05:46:00 AM 62.1158 14.0075 287° West  Level FlightAware Approximate
Thu 05:47:00 AM 62.1456 13.7890 286° West  Level FlightAware Approximate
Thu 05:48:00 AM 62.1750 13.5701 286° West  Level FlightAware Approximate
Thu 05:49:00 AM 62.2041 13.3507 286° West  Level FlightAware Approximate
Thu 05:50:00 AM 62.2328 13.1310 286° West  Level FlightAware Approximate
Thu 05:51:00 AM 62.2612 12.9108 286° West  Level FlightAware Approximate
Thu 05:52:00 AM 62.2892 12.6903 285° West  Level FlightAware Approximate
Thu 05:53:00 AM 62.3168 12.4693 285° West  Level FlightAware Approximate
Thu 05:54:00 AM 62.3442 12.2479 285° West  Level FlightAware Approximate
Thu 05:55:00 AM 62.3711 12.0261 285° West  Level FlightAware Approximate
Thu 05:56:00 AM 62.3978 11.8039 285° West  Level FlightAware Approximate
Thu 05:57:00 AM 62.4240 11.5813 284° West  Level FlightAware Approximate
Thu 05:58:00 AM 62.4499 11.3583 284° West  Level FlightAware Approximate
Thu 05:59:00 AM 62.4755 11.1350 284° West  Level FlightAware Approximate
Thu 06:00:00 AM 62.5006 10.9113 284° West  Level FlightAware Approximate
Thu 06:01:00 AM 62.5255 10.6872 284° West  Level FlightAware Approximate
Thu 06:02:00 AM 62.5499 10.4627 283° West  Level FlightAware Approximate
Thu 06:03:00 AM 62.5741 10.2378 283° West  Level FlightAware Approximate
Thu 06:04:00 AM 62.5978 10.0126 283° West  Level FlightAware Approximate
Thu 06:05:00 AM 62.6212 9.7870 283° West  Level FlightAware Approximate
Thu 06:06:00 AM 62.6442 9.5611 283° West  Level FlightAware Approximate
Thu 06:07:00 AM 62.6669 9.3349 282° West  Level FlightAware Approximate
Thu 06:08:00 AM 62.6892 9.1082 282° West  Level FlightAware Approximate
Thu 06:09:00 AM 62.7111 8.8813 282° West  Level FlightAware Approximate
Thu 06:10:00 AM 62.7327 8.6540 282° West  Level FlightAware Approximate
Thu 06:11:00 AM 62.7539 8.4264 282° West  Level FlightAware Approximate
Thu 06:12:00 AM 62.7747 8.1985 281° West  Level FlightAware Approximate
Thu 06:13:00 AM 62.7952 7.9702 281° West  Level FlightAware Approximate
Thu 06:14:00 AM 62.8153 7.7416 281° West  Level FlightAware Approximate
Thu 06:15:00 AM 62.8350 7.5128 281° West  Level FlightAware Approximate
Thu 06:16:00 AM 62.8543 7.2836 281° West  Level FlightAware Approximate
Thu 06:17:00 AM 62.8733 7.0541 280° West  Level FlightAware Approximate
Thu 06:18:00 AM 62.8919 6.8243 280° West  Level FlightAware Approximate
Thu 06:19:00 AM 62.9101 6.5942 280° West  Level FlightAware Approximate
Thu 06:20:00 AM 62.9280 6.3639 280° West  Level FlightAware Approximate
Thu 06:21:00 AM 62.9454 6.1333 280° West  Level FlightAware Approximate
Thu 06:22:00 AM 62.9625 5.9023 279° West  Level FlightAware Approximate
Thu 06:23:00 AM 62.9793 5.6712 279° West  Level FlightAware Approximate
Thu 06:24:00 AM 62.9956 5.4398 279° West  Level FlightAware Approximate
Thu 06:25:00 AM 63.0116 5.2081 279° West  Level FlightAware Approximate
Thu 06:26:00 AM 63.0271 4.9761 279° West  Level FlightAware Approximate
Thu 06:27:00 AM 63.0423 4.7439 278° West  Level FlightAware Approximate
Thu 06:28:00 AM 63.0572 4.5115 278° West  Level FlightAware Approximate
Thu 06:29:00 AM 63.0716 4.2789 278° West  Level FlightAware Approximate
Thu 06:30:00 AM 63.0857 4.0460 278° West  Level FlightAware Approximate
Thu 06:31:00 AM 63.0993 3.8129 277° West  Level FlightAware Approximate
Thu 06:32:00 AM 63.1126 3.5796 277° West  Level FlightAware Approximate
Thu 06:33:00 AM 63.1255 3.3460 277° West  Level FlightAware Approximate
Thu 06:34:00 AM 63.1381 3.1123 277° West  Level FlightAware Approximate
Thu 06:35:00 AM 63.1502 2.8784 277° West  Level FlightAware Approximate
Thu 06:36:00 AM 63.1620 2.6442 276° West  Level FlightAware Approximate
Thu 06:37:00 AM 63.1733 2.4099 276° West  Level FlightAware Approximate
Thu 06:38:00 AM 63.1843 2.1754 276° West  Level FlightAware Approximate
Thu 06:39:00 AM 63.1949 1.9407 276° West  Level FlightAware Approximate
Thu 06:40:00 AM 63.2051 1.7059 276° West  Level FlightAware Approximate
Thu 06:41:00 AM 63.2150 1.4709 275° West  Level FlightAware Approximate
Thu 06:42:00 AM 63.2244 1.2357 275° West  Level FlightAware Approximate
Thu 06:43:00 AM 63.2335 1.0004 275° West  Level FlightAware Approximate
Thu 06:44:00 AM 63.2421 0.7650 275° West  Level FlightAware Approximate
Thu 06:45:00 AM 63.2504 0.5294 275° West  Level FlightAware Approximate
Thu 06:46:00 AM 63.2583 0.2937 274° West  Level FlightAware Approximate
Thu 06:47:00 AM 63.2658 0.0578 274° West  Level FlightAware Approximate
Thu 06:48:00 AM 63.2729 -0.1782 274° West  Level FlightAware Approximate
Thu 06:49:00 AM 63.2796 -0.4142 274° West  Level FlightAware Approximate
Thu 06:50:00 AM 63.2859 -0.6504 274° West  Level FlightAware Approximate
Thu 06:51:00 AM 63.2918 -0.8867 273° West  Level FlightAware Approximate
Thu 06:52:00 AM 63.2974 -1.1231 273° West  Level FlightAware Approximate
Thu 06:53:00 AM 63.3025 -1.3596 273° West  Level FlightAware Approximate
Thu 06:54:00 AM 63.3072 -1.5961 273° West  Level FlightAware Approximate
Thu 06:55:00 AM 63.3116 -1.8327 272° West  Level FlightAware Approximate
Thu 06:56:00 AM 63.3156 -2.0694 272° West  Level FlightAware Approximate
Thu 06:57:00 AM 63.3191 -2.3062 272° West  Level FlightAware Approximate
Thu 06:58:00 AM 63.3223 -2.5430 272° West  Level FlightAware Approximate
Thu 06:59:00 AM 63.3251 -2.7799 272° West  Level FlightAware Approximate
Thu 07:00:00 AM 63.3275 -3.0168 271° West  Level FlightAware Approximate
Thu 07:01:00 AM 63.3295 -3.2537 271° West  Level FlightAware Approximate
Thu 07:02:00 AM 63.3311 -3.4907 271° West  Level FlightAware Approximate
Thu 07:03:00 AM 63.3324 -3.7277 271° West  Level FlightAware Approximate
Thu 07:04:00 AM 63.3332 -3.9647 271° West  Level FlightAware Approximate
Thu 07:05:00 AM 63.3336 -4.2017 270° West  Level FlightAware Approximate
Thu 07:06:00 AM 63.3336 -4.4387 270° West  Level FlightAware Approximate
Thu 07:07:00 AM 63.3333 -4.6757 270° West  Level FlightAware Approximate
Thu 07:08:00 AM 63.3326 -4.9127 270° West  Level FlightAware Approximate
Thu 07:09:00 AM 63.3314 -5.1498 269° West  Level FlightAware Approximate
Thu 07:10:00 AM 63.3299 -5.3867 269° West  Level FlightAware Approximate
Thu 07:11:00 AM 63.3279 -5.6237 269° West  Level FlightAware Approximate
Thu 07:12:00 AM 63.3256 -5.8606 269° West  Level FlightAware Approximate
Thu 07:13:00 AM 63.3229 -6.0975 269° West  Level FlightAware Approximate
Thu 07:14:00 AM 63.3198 -6.3343 268° West  Level FlightAware Approximate
Thu 07:15:00 AM 63.3163 -6.5711 268° West  Level FlightAware Approximate
Thu 07:16:00 AM 63.3124 -6.8078 268° West  Level FlightAware Approximate
Thu 07:17:00 AM 63.3081 -7.0444 268° West  Level FlightAware Approximate
Thu 07:18:00 AM 63.3035 -7.2810 268° West  Level FlightAware Approximate
Thu 07:19:00 AM 63.2984 -7.5175 267° West  Level FlightAware Approximate
Thu 07:20:00 AM 63.2929 -7.7539 267° West  Level FlightAware Approximate
Thu 07:21:00 AM 63.2871 -7.9902 267° West  Level FlightAware Approximate
Thu 07:22:00 AM 63.2808 -8.2264 267° West  Level FlightAware Approximate
Thu 07:23:00 AM 63.2742 -8.4625 267° West  Level FlightAware Approximate
Thu 07:24:00 AM 63.2672 -8.6985 266° West  Level FlightAware Approximate
Thu 07:25:00 AM 63.2598 -8.9343 266° West  Level FlightAware Approximate
Thu 07:26:00 AM 63.2520 -9.1701 266° West  Level FlightAware Approximate
Thu 07:27:00 AM 63.2438 -9.4057 266° West  Level FlightAware Approximate
Thu 07:28:00 AM 63.2352 -9.6412 265° West  Level FlightAware Approximate
Thu 07:29:00 AM 63.2262 -9.8765 265° West  Level FlightAware Approximate
Thu 07:30:00 AM 63.2169 -10.1117 265° West  Level FlightAware Approximate
Thu 07:31:00 AM 63.2071 -10.3467 265° West  Level FlightAware Approximate
Thu 07:32:00 AM 63.1969 -10.5816 265° West  Level FlightAware Approximate
Thu 07:33:00 AM 63.1864 -10.8163 264° West  Level FlightAware Approximate
Thu 07:34:00 AM 63.1754 -11.0508 264° West  Level FlightAware Approximate
Thu 07:35:00 AM 63.1641 -11.2852 264° West  Level FlightAware Approximate
Thu 07:36:00 AM 63.1524 -11.5193 264° West  Level FlightAware Approximate
Thu 07:37:00 AM 63.1403 -11.7533 264° West  Level FlightAware Approximate
Thu 07:38:00 AM 63.1278 -11.9871 263° West  Level FlightAware Approximate
Thu 07:39:00 AM 63.1150 -12.2206 263° West  Level FlightAware Approximate
Thu 07:40:00 AM 63.1017 -12.4540 263° West  Level FlightAware Approximate
Thu 07:41:00 AM 63.0881 -12.6871 263° West  Level FlightAware Approximate
Thu 07:42:00 AM 63.0741 -12.9200 263° West  Level FlightAware Approximate
Thu 07:43:00 AM 63.0597 -13.1527 262° West  Level FlightAware Approximate
Thu 07:44:00 AM 63.0449 -13.3852 262° West  Level FlightAware Approximate
Thu 07:45:00 AM 63.0298 -13.6174 262° West  Level FlightAware Approximate
Thu 07:46:00 AM 63.0142 -13.8494 262° West  Level FlightAware Approximate
Thu 07:47:00 AM 62.9983 -14.0811 261° West  Level FlightAware Approximate
Thu 07:48:00 AM 62.9820 -14.3126 261° West  Level FlightAware Approximate
Thu 07:49:00 AM 62.9653 -14.5438 261° West  Level FlightAware Approximate
Thu 07:50:00 AM 62.9483 -14.7747 261° West  Level FlightAware Approximate
Thu 07:51:00 AM 62.9309 -15.0054 261° West  Level FlightAware Approximate
Thu 07:52:00 AM 62.9131 -15.2358 260° West  Level FlightAware Approximate
Thu 07:53:00 AM 62.8949 -15.4659 260° West  Level FlightAware Approximate
Thu 07:54:00 AM 62.8763 -15.6957 260° West  Level FlightAware Approximate
Thu 07:55:00 AM 62.8574 -15.9252 260° West  Level FlightAware Approximate
Thu 07:56:00 AM 62.8381 -16.1545 260° West  Level FlightAware Approximate
Thu 07:57:00 AM 62.8184 -16.3834 259° West  Level FlightAware Approximate
Thu 07:58:00 AM 62.7984 -16.6120 259° West  Level FlightAware Approximate
Thu 07:59:00 AM 62.7780 -16.8403 259° West  Level FlightAware Approximate
Thu 08:00:00 AM 62.7572 -17.0683 259° West  Level FlightAware Approximate
Thu 08:01:00 AM 62.7360 -17.2960 259° West  Level FlightAware Approximate
Thu 08:02:00 AM 62.7145 -17.5233 258° West  Level FlightAware Approximate
Thu 08:03:00 AM 62.6926 -17.7503 258° West  Level FlightAware Approximate
Thu 08:04:00 AM 62.6704 -17.9769 258° West  Level FlightAware Approximate
Thu 08:05:00 AM 62.6478 -18.2033 258° West  Level FlightAware Approximate
Thu 08:06:00 AM 62.6248 -18.4292 258° West  Level FlightAware Approximate
Thu 08:07:00 AM 62.6015 -18.6549 257° West  Level FlightAware Approximate
Thu 08:08:00 AM 62.5778 -18.8801 257° West  Level FlightAware Approximate
Thu 08:09:00 AM 62.5537 -19.1050 257° West  Level FlightAware Approximate
Thu 08:10:00 AM 62.5293 -19.3295 257° West  Level FlightAware Approximate
Thu 08:11:00 AM 62.5045 -19.5537 257° West  Level FlightAware Approximate
Thu 08:12:00 AM 62.4793 -19.7775 256° West  Level FlightAware Approximate
Thu 08:13:00 AM 62.4538 -20.0009 256° West  Level FlightAware Approximate
Thu 08:14:00 AM 62.4280 -20.2239 256° West  Level FlightAware Approximate
Thu 08:15:00 AM 62.4017 -20.4466 256° West  Level FlightAware Approximate
Thu 08:16:00 AM 62.3752 -20.6688 256° West  Level FlightAware Approximate
Thu 08:17:00 AM 62.3483 -20.8906 255° West  Level FlightAware Approximate
Thu 08:18:00 AM 62.3210 -21.1121 255° West  Level FlightAware Approximate
Thu 08:19:00 AM 62.2933 -21.3331 255° West  Level FlightAware Approximate
Thu 08:20:00 AM 62.2654 -21.5538 255° West  Level FlightAware Approximate
Thu 08:21:00 AM 62.2370 -21.7740 255° West  Level FlightAware Approximate
Thu 08:22:00 AM 62.2084 -21.9938 254° West  Level FlightAware Approximate
Thu 08:23:00 AM 62.1793 -22.2132 254° West  Level FlightAware Approximate
Thu 08:24:00 AM 62.1500 -22.4321 254° West  Level FlightAware Approximate
Thu 08:25:00 AM 62.1203 -22.6507 254° West  Level FlightAware Approximate
Thu 08:26:00 AM 62.0902 -22.8688 254° West  Level FlightAware Approximate
Thu 08:27:00 AM 62.0598 -23.0865 253° West  Level FlightAware Approximate
Thu 08:28:00 AM 62.0291 -23.3037 253° West  Level FlightAware Approximate
Thu 08:29:00 AM 61.9980 -23.5205 253° West  Level FlightAware Approximate
Thu 08:30:00 AM 61.9666 -23.7368 253° West  Level FlightAware Approximate
Thu 08:31:00 AM 61.9348 -23.9527 253° West  Level FlightAware Approximate
Thu 08:32:00 AM 61.9027 -24.1682 253° West  Level FlightAware Approximate
Thu 08:33:00 AM 61.8703 -24.3832 252° West  Level FlightAware Approximate
Thu 08:34:00 AM 61.8375 -24.5977 252° West  Level FlightAware Approximate
Thu 08:35:00 AM 61.8044 -24.8118 252° West  Level FlightAware Approximate
Thu 08:36:00 AM 61.7710 -25.0254 252° West  Level FlightAware Approximate
Thu 08:37:00 AM 61.7372 -25.2386 252° West  Level FlightAware Approximate
Thu 08:38:00 AM 61.7031 -25.4513 251° West  Level FlightAware Approximate
Thu 08:39:00 AM 61.6687 -25.6635 251° West  Level FlightAware Approximate
Thu 08:40:00 AM 61.6351 -25.8684 251° West  Level Estimated
Thu 08:41:00 AM 61.6012 -26.0729 251° West  Level Estimated
Thu 08:42:00 AM 61.5670 -26.2769 251° West  Level Estimated
Thu 08:43:00 AM 61.5324 -26.4805 250° West  Level Estimated
Thu 08:44:00 AM 61.4976 -26.6836 250° West  Level Estimated
Thu 08:45:00 AM 61.4625 -26.8863 250° West  Level Estimated
Thu 08:46:00 AM 61.4271 -27.0885 250° West  Level Estimated
Thu 08:47:00 AM 61.3913 -27.2902 250° West  Level Estimated
Thu 08:48:00 AM 61.3553 -27.4915 250° West  Level Estimated
Thu 08:49:00 AM 61.3190 -27.6924 249° West  Level Estimated
Thu 08:50:00 AM 61.2824 -27.8927 249° West  Level Estimated
Thu 08:51:00 AM 61.2455 -28.0926 249° West  Level Estimated
Thu 08:52:00 AM 61.2083 -28.2920 249° West  Level Estimated
Thu 08:53:00 AM 61.1708 -28.4910 249° West  Level Estimated
Thu 08:54:00 AM 61.1330 -28.6894 249° West  Level Estimated
Thu 08:55:00 AM 61.0949 -28.8874 248° West  Level Estimated
Thu 08:56:00 AM 61.0565 -29.0849 248° West  Level Estimated
Thu 08:57:00 AM 61.0179 -29.2820 248° West  Level Estimated
Thu 08:58:00 AM 60.9789 -29.4785 248° West  Level Estimated
Thu 08:59:00 AM 60.9397 -29.6746 248° West  Level Estimated
Thu 09:00:00 AM 60.9002 -29.8702 248° West  Level Estimated
Thu 09:01:00 AM 60.8604 -30.0653 247° West  Level Estimated
Thu 09:02:00 AM 60.8204 -30.2599 247° West  Level Estimated
Thu 09:03:00 AM 60.7800 -30.4540 247° West  Level Estimated
Thu 09:04:00 AM 60.7394 -30.6477 247° West  Level Estimated
Thu 09:05:00 AM 60.6985 -30.8408 247° West  Level Estimated
Thu 09:06:00 AM 60.6573 -31.0335 246° West  Level Estimated
Thu 09:07:00 AM 60.6158 -31.2256 246° West  Level Estimated
Thu 09:08:00 AM 60.5741 -31.4173 246° West  Level Estimated
Thu 09:09:00 AM 60.5321 -31.6085 246° West  Level Estimated
Thu 09:10:00 AM 60.4898 -31.7991 246° West  Level Estimated
Thu 09:11:00 AM 60.4472 -31.9893 246° West  Level Estimated
Thu 09:12:00 AM 60.4044 -32.1790 245° Southwest  Level Estimated
Thu 09:13:00 AM 60.3613 -32.3681 245° Southwest  Level Estimated
Thu 09:14:00 AM 60.3179 -32.5568 245° Southwest  Level Estimated
Thu 09:15:00 AM 60.2743 -32.7450 245° Southwest  Level Estimated
Thu 09:16:00 AM 60.2304 -32.9327 245° Southwest  Level Estimated
Thu 09:17:00 AM 60.1862 -33.1198 245° Southwest  Level Estimated
Thu 09:18:00 AM 60.1418 -33.3065 245° Southwest  Level Estimated
Thu 09:19:00 AM 60.0971 -33.4926 244° Southwest  Level Estimated
Thu 09:20:00 AM 60.0522 -33.6783 244° Southwest  Level Estimated
Thu 09:21:00 AM 60.0070 -33.8634 244° Southwest  Level Estimated
Thu 09:22:00 AM 59.9615 -34.0480 244° Southwest  Level Estimated
Thu 09:23:00 AM 59.9158 -34.2322 244° Southwest  Level Estimated
Thu 09:24:00 AM 59.8698 -34.4158 244° Southwest  Level Estimated
Thu 09:25:00 AM 59.8236 -34.5989 243° Southwest  Level Estimated
Thu 09:26:00 AM 59.7771 -34.7815 243° Southwest  Level Estimated
Thu 09:27:00 AM 59.7303 -34.9636 243° Southwest  Level Estimated
Thu 09:28:00 AM 59.6833 -35.1452 243° Southwest  Level Estimated
Thu 09:29:00 AM 59.6361 -35.3262 243° Southwest  Level Estimated
Thu 09:30:00 AM 59.5886 -35.5068 243° Southwest  Level Estimated
Thu 09:31:00 AM 59.5409 -35.6869 242° Southwest  Level Estimated
Thu 09:32:00 AM 59.4929 -35.8664 242° Southwest  Level Estimated
Thu 09:33:00 AM 59.4447 -36.0454 242° Southwest  Level Estimated
Thu 09:34:00 AM 59.3962 -36.2239 242° Southwest  Level Estimated
Thu 09:35:00 AM 59.3475 -36.4020 242° Southwest  Level Estimated
Thu 09:36:00 AM 59.2985 -36.5795 242° Southwest  Level Estimated
Thu 09:37:00 AM 59.2493 -36.7565 242° Southwest  Level Estimated
Thu 09:38:00 AM 59.1999 -36.9329 241° Southwest  Level Estimated
Thu 09:39:00 AM 59.1502 -37.1089 241° Southwest  Level Estimated
Thu 09:40:00 AM 59.1003 -37.2843 241° Southwest  Level Estimated
Thu 09:41:00 AM 59.0501 -37.4593 241° Southwest  Level Estimated
Thu 09:42:00 AM 58.9998 -37.6337 241° Southwest  Level Estimated
Thu 09:43:00 AM 58.9491 -37.8076 241° Southwest  Level Estimated
Thu 09:44:00 AM 58.8983 -37.9810 240° Southwest  Level Estimated
Thu 09:45:00 AM 58.8472 -38.1539 240° Southwest  Level Estimated
Thu 09:46:00 AM 58.7959 -38.3263 240° Southwest  Level Estimated
Thu 09:47:00 AM 58.7444 -38.4982 240° Southwest  Level Estimated
Thu 09:48:00 AM 58.6926 -38.6696 240° Southwest  Level Estimated
Thu 09:49:00 AM 58.6406 -38.8404 240° Southwest  Level Estimated
Thu 09:50:00 AM 58.5884 -39.0108 240° Southwest  Level Estimated
Thu 09:51:00 AM 58.5359 -39.1806 239° Southwest  Level Estimated
Thu 09:52:00 AM 58.4832 -39.3499 239° Southwest  Level Estimated
Thu 09:53:00 AM 58.4304 -39.5188 239° Southwest  Level Estimated
Thu 09:54:00 AM 58.3773 -39.6871 239° Southwest  Level Estimated
Thu 09:55:00 AM 58.3239 -39.8549 239° Southwest  Level Estimated
Thu 09:56:00 AM 58.2704 -40.0222 239° Southwest  Level Estimated
Thu 09:57:00 AM 58.2166 -40.1890 239° Southwest  Level Estimated
Thu 09:58:00 AM 58.1626 -40.3553 238° Southwest  Level Estimated
Thu 09:59:00 AM 58.1084 -40.5211 238° Southwest  Level Estimated
Thu 10:00:00 AM 58.0540 -40.6864 238° Southwest  Level Estimated
Thu 10:01:00 AM 57.9994 -40.8511 238° Southwest  Level Estimated
Thu 10:02:00 AM 57.9445 -41.0154 238° Southwest  Level Estimated
Thu 10:03:00 AM 57.8895 -41.1792 238° Southwest  Level Estimated
Thu 10:04:00 AM 57.8342 -41.3424 238° Southwest  Level Estimated
Thu 10:05:00 AM 57.7787 -41.5052 237° Southwest  Level Estimated
Thu 10:06:00 AM 57.7231 -41.6675 237° Southwest  Level Estimated
Thu 10:07:00 AM 57.6672 -41.8293 237° Southwest  Level Estimated
Thu 10:08:00 AM 57.6111 -41.9905 237° Southwest  Level Estimated
Thu 10:09:00 AM 57.5548 -42.1513 237° Southwest  Level Estimated
Thu 10:10:00 AM 57.4983 -42.3116 237° Southwest  Level Estimated
Thu 10:11:00 AM 57.4416 -42.4714 237° Southwest  Level Estimated
Thu 10:12:00 AM 57.3847 -42.6306 237° Southwest  Level Estimated
Thu 10:13:00 AM 57.3276 -42.7894 236° Southwest  Level Estimated
Thu 10:14:00 AM 57.2702 -42.9477 236° Southwest  Level Estimated
Thu 10:15:00 AM 57.2127 -43.1055 236° Southwest  Level Estimated
Thu 10:16:00 AM 57.1550 -43.2628 236° Southwest  Level Estimated
Thu 10:17:00 AM 57.0971 -43.4197 236° Southwest  Level Estimated
Thu 10:18:00 AM 57.0391 -43.5760 236° Southwest  Level Estimated
Thu 10:19:00 AM 56.9808 -43.7318 236° Southwest  Level Estimated
Thu 10:20:00 AM 56.9223 -43.8872 235° Southwest  Level Estimated
Thu 10:21:00 AM 56.8636 -44.0420 235° Southwest  Level Estimated
Thu 10:22:00 AM 56.8048 -44.1964 235° Southwest  Level Estimated
Thu 10:23:00 AM 56.7457 -44.3503 235° Southwest  Level Estimated
Thu 10:24:00 AM 56.6865 -44.5037 235° Southwest  Level Estimated
Thu 10:25:00 AM 56.6270 -44.6567 235° Southwest  Level Estimated
Thu 10:26:00 AM 56.5674 -44.8091 235° Southwest  Level Estimated
Thu 10:27:00 AM 56.5076 -44.9611 235° Southwest  Level Estimated
Thu 10:28:00 AM 56.4476 -45.1126 234° Southwest  Level Estimated
Thu 10:29:00 AM 56.3875 -45.2636 234° Southwest  Level Estimated
Thu 10:30:00 AM 56.3271 -45.4141 234° Southwest  Level Estimated
Thu 10:31:00 AM 56.2666 -45.5642 234° Southwest  Level Estimated
Thu 10:32:00 AM 56.2058 -45.7138 234° Southwest  Level Estimated
Thu 10:33:00 AM 56.1450 -45.8629 234° Southwest  Level Estimated
Thu 10:34:00 AM 56.0839 -46.0115 234° Southwest  Level Estimated
Thu 10:35:00 AM 56.0226 -46.1597 234° Southwest  Level Estimated
Thu 10:36:00 AM 55.9612 -46.3074 233° Southwest  Level Estimated
Thu 10:37:00 AM 55.8996 -46.4546 233° Southwest  Level Estimated
Thu 10:38:00 AM 55.8378 -46.6013 233° Southwest  Level Estimated
Thu 10:39:00 AM 55.7758 -46.7476 233° Southwest  Level Estimated
Thu 10:40:00 AM 55.7137 -46.8935 233° Southwest  Level Estimated
Thu 10:41:00 AM 55.6514 -47.0388 233° Southwest  Level Estimated
Thu 10:42:00 AM 55.5889 -47.1837 233° Southwest  Level Estimated
Thu 10:43:00 AM 55.5263 -47.3282 233° Southwest  Level Estimated
Thu 10:44:00 AM 55.4635 -47.4721 232° Southwest  Level Estimated
Thu 10:45:00 AM 55.4005 -47.6157 232° Southwest  Level Estimated
Thu 10:46:00 AM 55.3374 -47.7587 232° Southwest  Level Estimated
Thu 10:47:00 AM 55.2740 -47.9013 232° Southwest  Level Estimated
Thu 10:48:00 AM 55.2106 -48.0435 232° Southwest  Level Estimated
Thu 10:49:00 AM 55.1469 -48.1852 232° Southwest  Level Estimated
Thu 10:50:00 AM 55.0831 -48.3264 232° Southwest  Level Estimated
Thu 10:51:00 AM 55.0191 -48.4672 232° Southwest  Level Estimated
Thu 10:52:00 AM 54.9550 -48.6076 232° Southwest  Level Estimated
Thu 10:53:00 AM 54.8907 -48.7475 231° Southwest  Level Estimated
Thu 10:54:00 AM 54.8262 -48.8869 231° Southwest  Level Estimated
Thu 10:55:00 AM 54.7616 -49.0260 231° Southwest  Level Estimated
Thu 10:56:00 AM 54.6969 -49.1645 231° Southwest  Level Estimated
Thu 10:57:00 AM 54.6319 -49.3026 231° Southwest  Level Estimated
Thu 10:58:00 AM 54.5668 -49.4403 231° Southwest  Level Estimated
Thu 10:59:00 AM 54.5016 -49.5776 231° Southwest  Level Estimated
Thu 11:00:00 AM 54.4362 -49.7144 231° Southwest  Level Estimated
Thu 11:01:00 AM 54.3707 -49.8507 231° Southwest  Level Estimated
Thu 11:02:00 AM 54.3049 -49.9867 230° Southwest  Level Estimated
Thu 11:03:00 AM 54.2391 -50.1222 230° Southwest  Level Estimated
Thu 11:04:00 AM 54.1731 -50.2572 230° Southwest  Level Estimated
Thu 11:05:00 AM 54.1069 -50.3919 230° Southwest  Level Estimated
Thu 11:06:00 AM 54.0406 -50.5261 230° Southwest  Level Estimated
Thu 11:07:00 AM 53.9741 -50.6599 230° Southwest  Level Estimated
Thu 11:08:00 AM 53.9075 -50.7932 230° Southwest  Level Estimated
Thu 11:09:00 AM 53.8408 -50.9261 230° Southwest  Level Estimated
Thu 11:10:00 AM 53.7739 -51.0586 230° Southwest  Level Estimated
Thu 11:11:00 AM 53.7068 -51.1907 229° Southwest  Level Estimated
Thu 11:12:00 AM 53.6396 -51.3224 229° Southwest  Level Estimated
Thu 11:13:00 AM 53.5723 -51.4536 229° Southwest  Level Estimated
Thu 11:14:00 AM 53.5048 -51.5844 229° Southwest  Level Estimated
Thu 11:15:00 AM 53.4372 -51.7149 229° Southwest  Level Estimated
Thu 11:16:00 AM 53.3694 -51.8448 229° Southwest  Level Estimated
Thu 11:17:00 AM 53.3016 -51.9744 229° Southwest  Level Estimated
Thu 11:18:00 AM 53.2335 -52.1036 229° Southwest  Level Estimated
Thu 11:19:00 AM 53.1653 -52.2323 229° Southwest  Level Estimated
Thu 11:20:00 AM 53.0970 -52.3607 228° Southwest  Level Estimated
Thu 11:21:00 AM 53.0285 -52.4886 228° Southwest  Level Estimated
Thu 11:22:00 AM 52.9600 -52.6162 228° Southwest  Level Estimated
Thu 11:23:00 AM 52.8912 -52.7433 228° Southwest  Level Estimated
Thu 11:24:00 AM 52.8224 -52.8700 228° Southwest  Level Estimated
Thu 11:25:00 AM 52.7534 -52.9964 228° Southwest  Level Estimated
Thu 11:26:00 AM 52.6842 -53.1223 228° Southwest  Level Estimated
Thu 11:27:00 AM 52.6150 -53.2478 228° Southwest  Level Estimated
Thu 11:28:00 AM 52.5456 -53.3730 228° Southwest  Level Estimated
Thu 11:29:00 AM 52.4760 -53.4977 228° Southwest  Level Estimated
Thu 11:29:13 AM 54.9000 -55.1667 227° Southwest 350 403 36,000  Level Moncton Center
Thu 11:30:00 AM 52.4064 -53.6220 227° Southwest  Level Estimated
Thu 11:30:25 AM 54.8167 -55.3333 229° Southwest 340 391 36,000  Level Gander Center
Thu 11:31:00 AM 52.3366 -53.7460 227° Southwest  Level Estimated
Thu 11:31:25 AM 54.7833 -55.4500 244° Southwest 340 391 36,000  Level Gander Center
Thu 11:32:00 AM 52.2663 -53.8701 227° Southwest  Level Estimated
Thu 11:32:25 AM 54.7167 -55.5833 229° Southwest 340 391 36,000  Level Gander Center
Thu 11:33:00 AM 52.1959 -53.9939 227° Southwest  Level Estimated
Thu 11:33:25 AM 54.6500 -55.7000 225° Southwest 340 391 36,000  Level Gander Center
Thu 11:34:00 AM 52.1254 -54.1173 227° Southwest  Level Estimated
Thu 11:34:25 AM 54.6000 -55.8333 237° Southwest 340 391 36,000  Level Gander Center
Thu 11:35:25 AM 54.5333 -55.9500 225° Southwest 340 391 36,000  Level Gander Center
Thu 11:36:25 AM 54.4667 -56.0667 226° Southwest 340 391 36,000  Level Gander Center
Thu 11:37:25 AM 54.4167 -56.2000 237° Southwest 330 380 36,000  Level Gander Center
Thu 11:38:13 AM 54.3667 -56.2667 218° Southwest 330 380 36,000  Level Moncton Center
Thu 11:39:13 AM 54.3000 -56.4000 229° Southwest 330 380 36,000  Level Moncton Center
Thu 11:40:13 AM 54.2500 -56.5167 234° Southwest 330 380 36,000  Level Moncton Center
Thu 11:41:13 AM 54.1833 -56.6167 221° Southwest 330 380 36,000  Level Moncton Center
Thu 11:42:13 AM 54.1167 -56.7500 230° Southwest 330 380 36,000  Level Moncton Center
Thu 11:43:13 AM 54.0667 -56.8667 234° Southwest 330 380 36,000  Level Moncton Center
Thu 11:44:13 AM 53.9833 -57.0000 223° Southwest 330 380 36,000  Level Moncton Center
Thu 11:45:13 AM 53.9500 -57.1000 241° Southwest 330 380 36,000  Level Moncton Center
Thu 11:46:25 AM 53.8667 -57.2500 227° Southwest 330 380 36,000  Level Gander Center
Thu 11:47:25 AM 53.8000 -57.3500 222° Southwest 330 380 36,000  Level Gander Center
Thu 11:48:25 AM 53.7333 -57.4667 226° Southwest 320 368 36,000  Level Gander Center
Thu 11:49:25 AM 53.6833 -57.5833 234° Southwest 320 368 36,000  Level Gander Center
Thu 11:50:25 AM 53.6333 -57.7000 234° Southwest 310 357 36,000  Level Gander Center
Thu 11:51:13 AM 53.5833 -57.7833 225° Southwest 310 357 36,000  Level Moncton Center
Thu 11:52:13 AM 53.5167 -57.9000 226° Southwest 310 357 36,000  Level Moncton Center
Thu 11:53:25 AM 53.4500 -58.0167 226° Southwest 310 357 36,000  Level Gander Center
Thu 11:54:25 AM 53.3833 -58.1500 230° Southwest 310 357 36,000  Level Gander Center
Thu 11:55:25 AM 53.3333 -58.2333 225° Southwest 310 357 36,000  Level Gander Center
Thu 11:56:25 AM 53.2833 -58.3500 234° Southwest 310 357 36,000  Level Gander Center
Thu 11:57:25 AM 53.2167 -58.4667 226° Southwest 310 357 36,000  Level Gander Center
Thu 11:58:25 AM 53.1667 -58.5500 225° Southwest 310 357 36,000  Level Gander Center
Thu 11:59:25 AM 53.1000 -58.6667 226° Southwest 310 357 36,000  Level Gander Center
Thu 12:00:25 PM 53.0333 -58.7833 226° Southwest 310 357 36,000  Level Gander Center
Thu 12:01:25 PM 52.9833 -58.9000 235° Southwest 310 357 36,000  Level Gander Center
Thu 12:02:25 PM 52.9167 -58.9833 217° Southwest 310 357 36,000  Level Gander Center
Thu 12:03:25 PM 52.8500 -59.1000 227° Southwest 310 357 36,000  Level Gander Center
Thu 12:04:25 PM 52.8167 -59.1833 237° Southwest 310 357 36,000  Level Gander Center
Thu 12:05:25 PM 52.7500 -59.3000 227° Southwest 310 357 36,000  Level Gander Center
Thu 12:06:25 PM 52.7000 -59.4000 230° Southwest 310 357 36,000  Level Gander Center
Thu 12:07:25 PM 52.6333 -59.4833 217° Southwest 300 345 36,000  Level Gander Center
Thu 12:08:25 PM 52.5833 -59.6000 235° Southwest 300 345 36,000  Level Gander Center
Thu 12:09:25 PM 52.5167 -59.6833 217° Southwest 300 345 36,000  Level Gander Center
Thu 12:10:25 PM 52.4667 -59.8000 235° Southwest 300 345 36,000  Level Gander Center
Thu 12:11:25 PM 52.4000 -59.8833 217° Southwest 300 345 36,000  Level Gander Center
Thu 12:12:25 PM 52.3500 -60.0000 235° Southwest 300 345 36,000  Level Gander Center
Thu 12:13:25 PM 52.2833 -60.0833 217° Southwest 300 345 36,000  Level Gander Center
Thu 12:14:25 PM 52.2333 -60.1833 231° Southwest 300 345 36,000  Level Gander Center
Thu 12:15:25 PM 52.1667 -60.3000 227° Southwest 300 345 36,000  Level Gander Center
Thu 12:16:25 PM 52.1167 -60.3833 226° Southwest 300 345 36,000  Level Gander Center
Thu 12:17:25 PM 52.0500 -60.4667 218° Southwest 300 345 36,000  Level Gander Center
Thu 12:18:25 PM 52.0000 -60.5833 235° Southwest 300 345 36,000  Level Gander Center
Thu 12:19:25 PM 51.9333 -60.6833 223° Southwest 300 345 36,000  Level Gander Center
Thu 12:20:25 PM 51.8667 -60.7667 218° Southwest 300 345 36,000  Level Gander Center
Thu 12:21:25 PM 51.8167 -60.8833 235° Southwest 300 345 36,000  Level Gander Center
Thu 12:22:25 PM 51.7500 -60.9833 223° Southwest 310 357 36,000  Level Gander Center
Thu 12:23:25 PM 51.6833 -61.0667 218° Southwest 320 368 36,000  Level Gander Center
Thu 12:24:25 PM 51.6333 -61.1667 231° Southwest 330 380 36,000  Level Gander Center
Thu 12:25:25 PM 51.5667 -61.2833 227° Southwest 330 380 36,000  Level Gander Center
Thu 12:26:25 PM 51.5000 -61.3833 223° Southwest 330 380 36,000  Level Gander Center
Thu 12:27:25 PM 51.4333 -61.5000 228° Southwest 330 380 36,000  Level Gander Center
Thu 12:28:25 PM 51.3667 -61.6000 223° Southwest 330 380 36,000  Level Gander Center
Thu 12:29:25 PM 51.3000 -61.7167 228° Southwest 330 380 36,000  Level Gander Center
Thu 12:30:25 PM 51.2500 -61.7833 220° Southwest 330 380 36,000  Level Gander Center
Thu 12:31:13 PM 51.1833 -61.8833 223° Southwest 340 391 36,000  Level Moncton Center
Thu 12:32:13 PM 51.1167 -62.0000 228° Southwest 340 391 36,000  Level Moncton Center
Thu 12:33:25 PM 51.0333 -62.1333 225° Southwest 340 391 36,000  Level Gander Center
Thu 12:34:25 PM 50.9833 -62.2333 232° Southwest 340 391 36,000  Level Gander Center
Thu 12:35:25 PM 50.9167 -62.3500 228° Southwest 340 391 36,000  Level Gander Center
Thu 12:36:25 PM 50.8333 -62.4500 217° Southwest 340 391 36,000  Level Gander Center
Thu 12:37:25 PM 50.7833 -62.5500 232° Southwest 340 391 36,000  Level Gander Center
Thu 12:38:25 PM 50.7167 -62.6500 224° Southwest 340 391 36,000  Level Gander Center
Thu 12:39:25 PM 50.6333 -62.7500 217° Southwest 350 403 36,000  Level Gander Center
Thu 12:40:13 PM 50.5833 -62.8333 227° Southwest 340 391 36,000  Level Moncton Center
Thu 12:41:25 PM 50.5000 -62.9667 226° Southwest 340 391 36,000  Level Gander Center
Thu 12:42:25 PM 50.4167 -63.0667 217° Southwest 350 403 36,000  Level Gander Center
Thu 12:43:25 PM 50.3500 -63.2000 232° Southwest 350 403 36,000  Level Gander Center
Thu 12:44:25 PM 50.2833 -63.3000 224° Southwest 350 403 36,000  Level Gander Center
Thu 12:45:13 PM 50.2167 -63.3833 219° Southwest 350 403 36,000  Level Moncton Center
Thu 12:46:13 PM 50.1500 -63.4833 224° Southwest 350 403 36,000  Level Moncton Center
Thu 12:47:13 PM 50.0833 -63.5833 224° Southwest 350 403 36,000  Level Moncton Center
Thu 12:48:13 PM 50.0167 -63.7000 228° Southwest 360 414 36,000  Level Moncton Center
Thu 12:49:13 PM 49.9333 -63.8000 218° Southwest 350 403 36,000  Level Moncton Center
Thu 12:50:13 PM 49.8833 -63.9000 232° Southwest 360 414 36,000  Level Moncton Center
Thu 12:51:25 PM 49.7833 -64.0333 221° Southwest 360 414 36,000  Level Gander Center
Thu 12:52:25 PM 49.7167 -64.1333 224° Southwest 370 426 36,000  Level Gander Center
Thu 12:53:13 PM 49.6667 -64.2167 227° Southwest 360 414 36,000  Level Moncton Center
Thu 12:54:13 PM 49.5667 -64.3167 213° Southwest 360 414 36,000  Level Moncton Center
Thu 12:55:25 PM 49.4833 -64.4500 226° Southwest 360 414 36,000  Level Gander Center
Thu 12:56:25 PM 49.4000 -64.5500 218° Southwest 360 414 36,000  Level Gander Center
Thu 12:57:25 PM 49.3333 -64.6667 229° Southwest 370 426 36,000  Level Gander Center
Thu 12:58:25 PM 49.2667 -64.7667 224° Southwest 370 426 36,000  Level Gander Center
Thu 12:59:25 PM 49.1833 -64.8667 218° Southwest 370 426 36,000  Level Gander Center
Thu 01:00:25 PM 49.1000 -64.9833 223° Southwest 370 426 36,000  Level Gander Center
Thu 01:01:25 PM 49.0333 -65.0833 225° Southwest 370 426 36,000  Level Gander Center
Thu 01:02:25 PM 48.9500 -65.2000 223° Southwest 380 437 36,000  Level Gander Center
Thu 01:03:25 PM 48.8833 -65.3000 225° Southwest 380 437 36,000  Level Gander Center
Thu 01:04:25 PM 48.8000 -65.4167 223° Southwest 370 426 36,000  Level Gander Center
Thu 01:05:25 PM 48.7167 -65.5167 218° Southwest 360 414 36,000  Level Gander Center
Thu 01:06:13 PM 48.6667 -65.5833 221° Southwest 360 414 36,000  Level Moncton Center
Thu 01:07:13 PM 48.6000 -65.6833 225° Southwest 370 426 36,000  Level Moncton Center
Thu 01:08:13 PM 48.5167 -65.8167 227° Southwest 370 426 36,000  Level Moncton Center
Thu 01:09:13 PM 48.4500 -65.9167 225° Southwest 370 426 36,000  Level Moncton Center
Thu 01:10:13 PM 48.3500 -66.0167 214° Southwest 370 426 36,000  Level Moncton Center
Thu 01:11:13 PM 48.2667 -66.1000 214° Southwest 380 437 36,000  Level Moncton Center
Thu 01:12:13 PM 48.2000 -66.2000 225° Southwest 380 437 36,000  Level Moncton Center
Thu 01:13:13 PM 48.1167 -66.3333 227° Southwest 380 437 36,000  Level Moncton Center
Thu 01:14:13 PM 48.0333 -66.4333 219° Southwest 380 437 36,000  Level Moncton Center
Thu 01:15:13 PM 47.9667 -66.5167 220° Southwest 380 437 36,000  Level Moncton Center
Thu 01:16:13 PM 47.8833 -66.6500 227° Southwest 380 437 36,000  Level Moncton Center
Thu 01:17:13 PM 47.8167 -66.7333 220° Southwest 380 437 36,000  Level Moncton Center
Thu 01:18:13 PM 47.7167 -66.8333 214° Southwest 390 449 36,000  Level Moncton Center
Thu 01:19:13 PM 47.6333 -66.9500 223° Southwest 390 449 36,000  Level Moncton Center
Thu 01:20:13 PM 47.5500 -67.0500 219° Southwest 390 449 36,000  Level Moncton Center
Thu 01:21:13 PM 47.4667 -67.1667 223° Southwest 390 449 36,000  Level Moncton Center
Thu 01:22:13 PM 47.3833 -67.2667 219° Southwest 390 449 36,000  Level Moncton Center
Thu 01:28:16 PM 46.9029 -67.9269 219° Southwest 395 455 36,000  Level FlightAware ADS-B
Thu 01:29:31 PM 46.8024 -68.0580 222° Southwest 396 456 36,000  Level FlightAware ADS-B
Thu 01:30:04 PM 46.7508 -68.1112 215° Southwest 399 459 36,000  Level FlightAware ADS-B
Thu 01:31:24 PM 46.6365 -68.2045 209° Southwest 399 459 36,000  Level FlightAware ADS-B
Thu 01:32:16 PM 46.5390 -68.2830 209° Southwest 403 464 36,000  Level FlightAware ADS-B
Thu 01:32:47 PM 46.4881 -68.3237 209° Southwest 405 466 36,000  Level FlightAware ADS-B
Thu 01:33:22 PM 46.4297 -68.3700 209° Southwest 407 468 36,000  Level FlightAware ADS-B
Thu 01:33:52 PM 46.3863 -68.4044 209° Southwest 408 470 36,000  Level FlightAware ADS-B
Thu 01:34:30 PM 46.3229 -68.4545 209° Southwest 407 468 36,000  Level FlightAware ADS-B
Thu 01:35:21 PM 46.2348 -68.5240 209° Southwest 403 464 36,000  Level FlightAware ADS-B
Thu 01:36:04 PM 46.1660 -68.5781 209° Southwest 406 467 36,000  Level FlightAware ADS-B
Thu 01:36:34 PM 46.1271 -68.6087 209° Southwest 407 468 36,000  Level FlightAware ADS-B
Thu 01:37:12 PM 46.0595 -68.6615 208° Southwest 410 472 36,000  Level FlightAware ADS-B
Thu 01:37:47 PM 45.9995 -68.7083 208° Southwest 410 472 36,000  Level FlightAware ADS-B
Thu 01:38:26 PM 45.9273 -68.7645 208° Southwest 412 474 36,000  Level FlightAware ADS-B
Thu 01:39:08 PM 45.8579 -68.8183 208° Southwest 405 466 36,000  Level FlightAware ADS-B
Thu 01:40:09 PM 45.7587 -68.8949 208° Southwest 402 463 36,000  Level FlightAware ADS-B
Thu 01:40:41 PM 45.7060 -68.9355 208° Southwest 406 467 36,000  Level FlightAware ADS-B
Thu 01:41:29 PM 45.6266 -68.9965 208° Southwest 408 470 36,000  Level FlightAware ADS-B
Thu 01:42:03 PM 45.5697 -69.0402 208° Southwest 407 468 36,000  Level FlightAware ADS-B
Thu 01:42:59 PM 45.4842 -69.1055 208° Southwest 405 466 36,000  Level FlightAware ADS-B
Thu 01:43:29 PM 45.4283 -69.1481 208° Southwest 400 460 36,000  Level FlightAware ADS-B
Thu 01:44:00 PM 45.3793 -69.1854 208° Southwest 400 460 36,000  Level FlightAware ADS-B
Thu 01:44:32 PM 45.3254 -69.2263 208° Southwest 404 465 36,000  Level FlightAware ADS-B
Thu 01:45:04 PM 45.2945 -69.2497 208° Southwest 401 461 36,000  Level FlightAware ADS-B
Thu 01:45:47 PM 45.2034 -69.3185 208° Southwest 401 461 36,000  Level FlightAware ADS-B
Thu 01:46:25 PM 45.1405 -69.3659 208° Southwest 405 466 36,000  Level FlightAware ADS-B
Thu 01:47:20 PM 45.0981 -69.3978 208° Southwest 406 467 36,000  Level FlightAware ADS-B
Thu 01:47:50 PM 44.9996 -69.4715 208° Southwest 408 470 36,000  Level FlightAware ADS-B
Thu 01:48:21 PM 44.9638 -69.4984 208° Southwest 408 470 36,000  Level FlightAware ADS-B
Thu 01:49:05 PM 44.8915 -69.5522 208° Southwest 401 461 36,000  Level FlightAware ADS-B
Thu 01:49:36 PM 44.8246 -69.6020 208° Southwest 403 464 36,000  Level FlightAware ADS-B
Thu 01:50:09 PM 44.7698 -69.6427 208° Southwest 404 465 36,000  Level FlightAware ADS-B
Thu 01:50:43 PM 44.7135 -69.6845 208° Southwest 407 468 36,000  Level FlightAware ADS-B
Thu 01:51:14 PM 44.6595 -69.7243 208° Southwest 407 468 36,000  Level FlightAware ADS-B
Thu 01:51:51 PM 44.6085 -69.7619 208° Southwest 404 465 36,000  Level FlightAware ADS-B
Thu 01:52:25 PM 44.5440 -69.8093 208° Southwest 404 465 36,000  Level FlightAware ADS-B
Thu 01:52:56 PM 44.4928 -69.8470 208° Southwest 404 465 36,000  Level FlightAware ADS-B
Thu 01:53:31 PM 44.4354 -69.8890 208° Southwest 403 464 36,000  Level FlightAware ADS-B
Thu 01:54:05 PM 44.3793 -69.9299 208° Southwest 398 458 36,000  Level FlightAware ADS-B
Thu 01:54:37 PM 44.3161 -69.9761 208° Southwest 408 470 36,000  Level FlightAware ADS-B
Thu 01:55:08 PM 44.2637 -70.0142 208° Southwest 407 468 36,000  Level FlightAware ADS-B
Thu 01:55:58 PM 44.1832 -70.0727 208° Southwest 402 463 36,000  Level FlightAware ADS-B
Thu 01:56:44 PM 44.1065 -70.1283 207° Southwest 407 468 36,000  Level FlightAware ADS-B
Thu 01:56:57 PM 44.0926 -70.1383 207° Southwest 401 461 36,000  Level FlightAware ADS-B
Thu 01:57:20 PM 44.0532 -70.1667 207° Southwest 409 471 36,000  Level FlightAware ADS-B
Thu 01:57:55 PM 43.9966 -70.2074 207° Southwest 402 463 36,000  Level FlightAware ADS-B
Thu 01:58:31 PM 43.9745 -70.2233 207° Southwest 409 471 36,000  Level FlightAware ADS-B (EPKK / KRK)
Thu 01:59:03 PM 43.8812 -70.2903 207° Southwest 400 460 36,000  Level FlightAware ADS-B
Thu 01:59:20 PM 43.8740 -70.2954 207° Southwest 407 468 36,000  Level FlightAware ADS-B (EPKK / KRK)
Thu 01:59:48 PM 43.8055 -70.3444 207° Southwest 400 460 36,000  Level FlightAware ADS-B
Thu 02:00:03 PM 43.7880 -70.3568 207° Southwest 411 473 36,000  Level FlightAware ADS-B (KBKF)
Thu 02:00:37 PM 43.7423 -70.3895 207° Southwest 412 474 36,000  Level FlightAware ADS-B (KBKF)
Thu 02:01:25 PM 43.6432 -70.4599 207° Southwest 403 464 36,000  Level FlightAware ADS-B
Thu 02:01:48 PM 43.6057 -70.4864 207° Southwest 398 458 36,000  Level FlightAware ADS-B (KBKF)
Thu 02:02:21 PM 43.5533 -70.5235 207° Southwest 398 458 36,000  Level FlightAware ADS-B (KBKF)
Thu 02:02:52 PM 43.5015 -70.5602 207° Southwest 398 458 36,000  Level FlightAware ADS-B (KBKF)
Thu 02:03:23 PM 43.4503 -70.5956 207° Southwest 399 459 36,000  Level FlightAware ADS-B (EPKK / KRK)
Thu 02:03:53 PM 43.4093 -70.6170 201° Southwest 405 466 36,000  Level FlightAware ADS-B (KBKF)
Thu 02:04:23 PM 43.3431 -70.6415 195° South 408 470 36,000  Level FlightAware ADS-B (KBKF)
Thu 02:04:55 PM 43.2855 -70.6630 195° South 399 459 36,000  Level FlightAware ADS-B
Thu 02:05:29 PM 43.2248 -70.6852 195° South 406 467 36,000  Level FlightAware ADS-B (EPKK / KRK)
Thu 02:06:03 PM 43.1631 -70.7073 195° South 407 468 36,000  Level FlightAware ADS-B (KBKF)
Thu 02:06:34 PM 43.1055 -70.7277 195° South 409 471 36,000  Level FlightAware ADS-B (KBKF)
Thu 02:07:09 PM 43.0421 -70.7503 195° South 411 473 36,000  Level FlightAware ADS-B (EPKK / KRK)
Thu 02:07:41 PM 42.9836 -70.7709 194° South 412 474 36,000  Level FlightAware ADS-B (EPKK / KRK)
Thu 02:08:14 PM 42.9199 -70.7933 194° South 412 474 36,000  Level FlightAware ADS-B
Thu 02:08:45 PM 42.8695 -70.8111 195° South 413 475 36,000  Level FlightAware ADS-B (EPKK / KRK)
Thu 02:09:15 PM 42.8122 -70.8314 194° South 415 478 36,000  Level FlightAware ADS-B (EPKK / KRK)
Thu 02:09:35 PM 42.7727 -70.8515 201° Southwest 403 464 36,000  Level FlightAware ADS-B (EPKK / KRK)
Thu 02:10:06 PM 42.7310 -70.8943 217° Southwest 396 456 36,000  Level FlightAware ADS-B (EPKK / KRK)
Thu 02:10:16 PM 42.7149 -70.9117 218° Southwest 397 457 36,000  Level FlightAware ADS-B (EPKK / KRK)
Thu 02:10:46 PM 42.6722 -70.9575 218° Southwest 397 457 36,000  Level FlightAware ADS-B (EPKK / KRK)
Thu 02:11:16 PM 42.6277 -71.0050 218° Southwest 398 458 36,000  Level FlightAware ADS-B (EPKK / KRK)
Thu 02:11:47 PM 42.5846 -71.0510 218° Southwest 398 458 36,000  Level FlightAware ADS-B (EPKK / KRK)
Thu 02:11:53 PM 42.5735 -71.0628 218° Southwest 396 456 36,000  Level FlightAware ADS-B (EPKK / KRK)
Thu 02:12:06 PM 42.5568 -71.0805 218° Southwest 395 455 36,000  Level FlightAware ADS-B (EPKK / KRK)
Thu 02:12:38 PM 42.5106 -71.1296 218° Southwest 391 450 36,000  Level FlightAware ADS-B (EPKK / KRK)
Thu 02:13:15 PM 42.4569 -71.1867 218° Southwest 389 448 36,000  Level FlightAware ADS-B
Thu 02:13:48 PM 42.4116 -71.2347 218° Southwest 380 437 36,000  Level FlightAware ADS-B (EPKK / KRK)
Thu 02:14:18 PM 42.3700 -71.2785 218° Southwest 380 437 36,000  Level FlightAware ADS-B (EPKK / KRK)
Thu 02:14:48 PM 42.3272 -71.3234 218° Southwest 373 429 36,000  Level FlightAware ADS-B (EPKK / KRK)
Thu 02:14:55 PM 42.3190 -71.3321 218° Southwest 373 429 36,000  Level FlightAware ADS-B (KBKF)
Thu 02:15:25 PM 42.2769 -71.3765 218° Southwest 372 428 36,000  Level FlightAware ADS-B
Thu 02:15:55 PM 42.2356 -71.4198 218° Southwest 373 429 36,000  Level FlightAware ADS-B
Thu 02:16:25 PM 42.1940 -71.4634 218° Southwest 374 430 36,000  Level FlightAware ADS-B
Thu 02:17:02 PM 42.1443 -71.5154 218° Southwest 381 438 36,000  Level FlightAware ADS-B (EPKK / KRK)
Thu 02:17:11 PM 42.1309 -71.5293 218° Southwest 381 438 36,000  Level FlightAware ADS-B (KBKF)
Thu 02:17:44 PM 42.0879 -71.5743 218° Southwest 382 440 36,000  Level FlightAware ADS-B (EPKK / KRK)
Thu 02:18:15 PM 42.0412 -71.6229 218° Southwest 376 433 36,000  Level FlightAware ADS-B
Thu 02:18:45 PM 41.9990 -71.6668 218° Southwest 373 429 36,000  Level FlightAware ADS-B
Thu 02:19:15 PM 41.9580 -71.7093 218° Southwest 372 428 36,000  Level FlightAware ADS-B
Thu 02:19:30 PM 41.9366 -71.7316 218° Southwest 371 427 36,000  Level FlightAware ADS-B
Thu 02:19:54 PM 41.9036 -71.7656 218° Southwest 369 425 36,000  Level FlightAware ADS-B
Thu 02:20:25 PM 41.8632 -71.8073 218° Southwest 375 432 36,000  Level FlightAware ADS-B (KBKF)
Thu 02:20:58 PM 41.8177 -71.8542 218° Southwest 374 430 36,000  Level FlightAware ADS-B (KBKF)
Thu 02:21:30 PM 41.7720 -71.9013 218° Southwest 371 427 36,000  Level FlightAware ADS-B
Thu 02:21:39 PM 41.7604 -71.9132 217° Southwest 370 426 36,000  Level FlightAware ADS-B
Thu 02:22:09 PM 41.7209 -71.9538 217° Southwest 368 423 36,000  Level FlightAware ADS-B (KBKF)
Thu 02:22:40 PM 41.6793 -71.9965 217° Southwest 368 423 36,000  Level FlightAware ADS-B (KBKF)
Thu 02:23:11 PM 41.6441 -72.0325 217° Southwest 369 425 36,000  Level FlightAware ADS-B (KBKF)
Thu 02:23:41 PM 41.5964 -72.0813 217° Southwest 369 425 36,000  Level FlightAware ADS-B (KBKF)
Thu 02:24:12 PM 41.5531 -72.1254 217° Southwest 368 423 36,000  Level FlightAware ADS-B (KSNC)
Thu 02:24:43 PM 41.5117 -72.1676 217° Southwest 367 422 36,000  Level FlightAware ADS-B (KBKF)
Thu 02:25:13 PM 41.4714 -72.2087 217° Southwest 364 419 36,000  Level FlightAware ADS-B (KBKF)
Thu 02:25:45 PM 41.4288 -72.2518 217° Southwest 365 420 36,000  Level FlightAware ADS-B (KSNC)
Thu 02:26:15 PM 41.3876 -72.2936 217° Southwest 365 420 36,000  Level FlightAware ADS-B (KSNC)
Thu 02:26:46 PM 41.3486 -72.3331 217° Southwest 365 420 36,000  Level FlightAware ADS-B (KSNC)
Thu 02:27:25 PM 41.2949 -72.3873 217° Southwest 368 423 36,000  Level FlightAware ADS-B (KSNC)
Thu 02:27:57 PM 41.2502 -72.4324 217° Southwest 366 421 36,000  Level FlightAware ADS-B (KSNC)
Thu 02:28:29 PM 41.2073 -72.4756 217° Southwest 366 421 36,000  Level FlightAware ADS-B (KSNC)
Thu 02:29:09 PM 41.1631 -72.5201 217° Southwest 365 420 36,000  Level FlightAware ADS-B (KSNC)
Thu 02:29:39 PM 41.1140 -72.5693 217° Southwest 366 421 36,000  Level FlightAware ADS-B (KSNC)
Thu 02:30:14 PM 41.0675 -72.6158 217° Southwest 366 421 36,000  Level FlightAware ADS-B (KSNC)
Thu 02:30:50 PM 41.0192 -72.6641 217° Southwest 367 422 36,000  Level FlightAware ADS-B (KSNC)
Thu 02:31:20 PM 40.9815 -72.7018 217° Southwest 368 423 36,000  Level FlightAware ADS-B (KSNC)
Thu 02:31:50 PM 40.9367 -72.7464 217° Southwest 368 423 36,000  Level FlightAware ADS-B (KSNC)
Thu 02:32:29 PM 40.8827 -72.8000 217° Southwest 369 425 36,000  Level FlightAware ADS-B (KSNC)
Thu 02:33:00 PM 40.8412 -72.8413 217° Southwest 369 425 36,000  Level FlightAware ADS-B (KSNC)
Thu 02:33:39 PM 40.7875 -72.8946 217° Southwest 371 427 36,000  Level FlightAware ADS-B (KSNC)
Thu 02:34:02 PM 40.7559 -72.9258 217° Southwest 365 420 36,000  Level FlightAware ADS-B (KWWD)
Thu 02:34:30 PM 40.7178 -72.9634 217° Southwest 366 421 36,000  Level FlightAware ADS-B (KWWD)
Thu 02:35:00 PM 40.6772 -73.0034 217° Southwest 372 428 36,000  Level FlightAware ADS-B (KSNC)
Thu 02:35:38 PM 40.6244 -73.0553 217° Southwest 366 421 36,000  Level FlightAware ADS-B (KWWD)
Thu 02:35:56 PM 40.5995 -73.0798 217° Southwest 366 421 36,000  Level FlightAware ADS-B (KWWD)
Thu 02:36:16 PM 40.5709 -73.1078 217° Southwest 373 429 36,000  Level FlightAware ADS-B (KSNC)
Thu 02:36:50 PM 40.5261 -73.1517 217° Southwest 373 429 36,000  Level FlightAware ADS-B (KSNC)
Thu 02:36:56 PM 40.5167 -73.1609 216° Southwest 367 422 36,000  Level FlightAware ADS-B (KWWD)
Thu 02:37:30 PM 40.4695 -73.2070 217° Southwest 373 429 36,000  Level FlightAware ADS-B (KSNC)
Thu 02:37:41 PM 40.4541 -73.2221 217° Southwest 367 422 36,000  Level FlightAware ADS-B (KWWD)
Thu 02:38:11 PM 40.4125 -73.2627 217° Southwest 374 430 36,000  Level FlightAware ADS-B (KSNC)
Thu 02:38:50 PM 40.3584 -73.3155 217° Southwest 374 430 36,000  Level FlightAware ADS-B (KSNC)
Thu 02:38:54 PM 40.3563 -73.3175 216° Southwest 374 430 36,000  Level FlightAware ADS-B (KSNC)
Thu 02:39:45 PM 40.2822 -73.3895 217° Southwest 378 435 36,000  Level FlightAware ADS-B (KWWD)
Thu 02:40:16 PM 40.2391 -73.4314 216° Southwest 378 435 36,000  Level FlightAware ADS-B (KWWD)
Thu 02:40:49 PM 40.1923 -73.4766 216° Southwest 378 435 36,000  Level FlightAware ADS-B (KWWD)
Thu 02:41:19 PM 40.1507 -73.5167 216° Southwest 380 437 36,000  Level FlightAware ADS-B (KWWD)
Thu 02:41:49 PM 40.1068 -73.5591 216° Southwest 380 437 36,000  Level FlightAware ADS-B (KWWD)
Thu 02:42:19 PM 40.0648 -73.5995 216° Southwest 381 438 36,000  Level FlightAware ADS-B (KWWD)
Thu 02:42:51 PM 40.0231 -73.6398 216° Southwest 383 441 36,000  Level FlightAware ADS-B (KSNC)
Thu 02:43:29 PM 39.9644 -73.6963 216° Southwest 384 442 36,000  Level FlightAware ADS-B (KWWD)
Thu 02:43:59 PM 39.9219 -73.7370 216° Southwest 385 443 36,000  Level FlightAware ADS-B (KWWD)
Thu 02:44:30 PM 39.8784 -73.7786 216° Southwest 379 436 36,000  Level FlightAware ADS-B (KWWD)
Thu 02:45:00 PM 39.8350 -73.8201 216° Southwest 380 437 36,000  Level FlightAware ADS-B (KWWD)
Thu 02:45:21 PM 39.8040 -73.8496 216° Southwest 386 444 36,000  Level FlightAware ADS-B (KSNC)
Thu 02:45:27 PM 39.7960 -73.8573 216° Southwest 386 444 36,000  Level FlightAware ADS-B (KSNC)
Thu 02:46:00 PM 39.7482 -73.9027 216° Southwest 379 436 36,000  Level FlightAware ADS-B (KWWD)
Thu 02:46:30 PM 39.7050 -73.9437 216° Southwest 379 436 36,000  Level FlightAware ADS-B (KWWD)
Thu 02:47:00 PM 39.6628 -73.9837 216° Southwest 384 442 36,000  Level FlightAware ADS-B (KWWD)
Thu 02:47:30 PM 39.6189 -74.0254 216° Southwest 383 441 36,000  Level FlightAware ADS-B (KWWD)
Thu 02:48:01 PM 39.5736 -74.0637 213° Southwest 389 448 36,000  Level FlightAware ADS-B (KWWD)
Thu 02:48:39 PM 39.5135 -74.1070 209° Southwest 391 450 36,000  Level FlightAware ADS-B (KWWD)
Thu 02:49:10 PM 39.4644 -74.1428 209° Southwest 393 452 36,000  Level FlightAware ADS-B (KWWD)
Thu 02:49:50 PM 39.4020 -74.1882 209° Southwest 390 449 36,000  Level FlightAware ADS-B (KWWD)
Thu 02:50:21 PM 39.3539 -74.2232 209° Southwest 388 447 36,000  Level FlightAware ADS-B (KWWD)
Thu 02:51:00 PM 39.2900 -74.2628 206° Southwest 391 450 36,000  Level FlightAware ADS-B (KWWD)
Thu 02:51:31 PM 39.2391 -74.2918 204° Southwest 391 450 36,000  Level FlightAware ADS-B (KWWD)
Thu 02:52:10 PM 39.1746 -74.3291 204° Southwest 389 448 36,000  Level FlightAware ADS-B (KWWD)
Thu 02:52:41 PM 39.1235 -74.3583 204° Southwest 388 447 36,000  Level FlightAware ADS-B (KWWD)
Thu 02:53:11 PM 39.0742 -74.3866 204° Southwest 388 447 36,000  Level FlightAware ADS-B (KWWD)
Thu 02:53:41 PM 39.0246 -74.4151 204° Southwest 389 448 36,000  Level FlightAware ADS-B (KWWD)
Thu 02:54:11 PM 38.9759 -74.4429 204° Southwest 389 448 36,000  Level FlightAware ADS-B (KWWD)
Thu 02:54:41 PM 38.9261 -74.4713 204° Southwest 388 447 36,000  Level FlightAware ADS-B (KWWD)
Thu 02:55:11 PM 38.8768 -74.4994 204° Southwest 389 448 36,000  Level FlightAware ADS-B (KWWD)
Thu 02:55:41 PM 38.8278 -74.5273 204° Southwest 388 447 36,000  Level FlightAware ADS-B (KWWD)
Thu 02:56:19 PM 38.7656 -74.5627 204° Southwest 388 447 36,000  Level FlightAware ADS-B (KWWD)
Thu 02:56:51 PM 38.7133 -74.5924 204° Southwest 386 444 36,000  Level FlightAware ADS-B (KWWD)
Thu 02:57:21 PM 38.6641 -74.6203 204° Southwest 387 445 36,000  Level FlightAware ADS-B (KWWD)
Thu 02:58:01 PM 38.5991 -74.6571 204° Southwest 387 445 36,000  Level FlightAware ADS-B (KWWD)
Thu 02:58:31 PM 38.5496 -74.6850 204° Southwest 386 444 36,000  Level FlightAware ADS-B (KWWD)
Thu 02:59:01 PM 38.5013 -74.7123 204° Southwest 386 444 36,000  Level FlightAware ADS-B (KWWD)
Thu 02:59:31 PM 38.4521 -74.7399 204° Southwest 387 445 36,000  Level FlightAware ADS-B (KWWD)
Thu 03:00:01 PM 38.4017 -74.7682 204° Southwest 387 445 36,000  Level FlightAware ADS-B (KWWD)
Thu 03:00:41 PM 38.3368 -74.8046 204° Southwest 390 449 36,000  Level FlightAware ADS-B (KWWD)
Thu 03:01:11 PM 38.2880 -74.8320 204° Southwest 391 450 36,000  Level FlightAware ADS-B (KWWD)
Thu 03:01:50 PM 38.2216 -74.8690 204° Southwest 385 443 36,000  Level FlightAware ADS-B (KWWD)
Thu 03:02:21 PM 38.1703 -74.8977 204° Southwest 385 443 36,000  Level FlightAware ADS-B (KWWD)
Thu 03:02:52 PM 38.1198 -74.9258 204° Southwest 391 450 36,000  Level FlightAware ADS-B (KWWD)
Thu 03:03:22 PM 38.0706 -74.9532 204° Southwest 385 443 36,000  Level FlightAware ADS-B (KWWD)
Thu 03:04:01 PM 38.0055 -74.9895 204° Southwest 391 450 36,000  Level FlightAware ADS-B (KWWD)
Thu 03:04:32 PM 37.9547 -75.0177 204° Southwest 390 449 36,000  Level FlightAware ADS-B (KWWD)
Thu 03:05:03 PM 37.9032 -75.0462 204° Southwest 390 449 36,000  Level FlightAware ADS-B (KWWD)
Thu 03:05:42 PM 37.8383 -75.0821 204° Southwest 385 443 36,000  Level FlightAware ADS-B (KWWD)
Thu 03:06:13 PM 37.7872 -75.1104 204° Southwest 387 445 36,000  Level FlightAware ADS-B (KWWD)
Thu 03:06:52 PM 37.7214 -75.1466 204° Southwest 388 447 36,000  Level FlightAware ADS-B (KWWD)
Thu 03:07:22 PM 37.6714 -75.1741 204° Southwest 389 448 36,000  Level FlightAware ADS-B (KWWD)
Thu 03:08:02 PM 37.6039 -75.2112 203° Southwest 390 449 36,000  Level FlightAware ADS-B (KWWD)
Thu 03:08:32 PM 37.5541 -75.2385 204° Southwest 391 450 36,000  Level FlightAware ADS-B (KWWD)
Thu 03:09:02 PM 37.5031 -75.2664 203° Southwest 391 450 36,000  Level FlightAware ADS-B (KWWD)
Thu 03:09:32 PM 37.4514 -75.2946 203° Southwest 390 449 36,000  Level FlightAware ADS-B (KWWD)
Thu 03:10:12 PM 37.3851 -75.3307 203° Southwest 387 445 36,000  Level FlightAware ADS-B (KWWD)
Thu 03:10:45 PM 37.3292 -75.3612 203° Southwest 385 443 36,000  Level FlightAware ADS-B (KWWD)
Thu 03:11:30 PM 37.2544 -75.4018 203° Southwest 390 449 36,000  Level FlightAware ADS-B (KWWD)
Thu 03:12:07 PM 37.1932 -75.4350 203° Southwest 387 445 36,000  Level FlightAware ADS-B (KWWD)
Thu 03:12:46 PM 37.1307 -75.4689 203° Southwest 386 444 36,000  Level FlightAware ADS-B (KWWD)
Thu 03:14:48 PM 36.9292 -75.5776 203° Southwest 390 449 36,000  Level FlightAware ADS-B (KWWD)
Thu 03:17:41 PM 36.6435 -75.7307 203° Southwest 390 449 36,000  Level FlightAware ADS-B (KWWD)
Thu 03:18:33 PM 36.5772 -75.7653 203° Southwest 394 453 36,000  Level Washington Center
Thu 03:19:31 PM 36.4772 -75.8192 203° Southwest 399 459 36,000  Level Washington Center
Thu 03:20:31 PM 36.3686 -75.8783 204° Southwest 399 459 36,000  Level Washington Center
Thu 03:21:32 PM 36.2681 -75.9294 202° Southwest 399 459 36,000  Level Washington Center
Thu 03:22:33 PM 36.1658 -75.9831 203° Southwest 399 459 36,000  Level Washington Center
Thu 03:23:33 PM 36.0633 -76.0367 203° Southwest 399 459 36,000  Level Washington Center
Thu 03:24:31 PM 35.9631 -76.0900 203° Southwest 399 459 36,000  Level Washington Center
Thu 03:25:32 PM 35.8628 -76.1456 204° Southwest 399 459 36,000  Level Washington Center
Thu 03:26:31 PM 35.7622 -76.1961 202° Southwest 399 459 36,000  Level Washington Center
Thu 03:27:32 PM 35.6619 -76.2464 202° Southwest 399 459 36,000  Level Washington Center
Thu 03:28:31 PM 35.5592 -76.2967 202° Southwest 399 459 36,000  Level Washington Center
Thu 03:29:31 PM 35.4589 -76.3494 203° Southwest 399 459 36,000  Level Washington Center
Thu 03:30:31 PM 35.3583 -76.4019 203° Southwest 399 459 36,000  Level Washington Center
Thu 03:31:32 PM 35.2600 -76.4544 204° Southwest 399 459 36,000  Level Washington Center
Thu 03:32:33 PM 35.1636 -76.5042 203° Southwest 399 459 36,000  Level Washington Center
Thu 03:33:33 PM 35.0650 -76.5539 202° Southwest 399 459 36,000  Level Washington Center
Thu 03:34:31 PM 34.9667 -76.6033 202° Southwest 399 459 36,000  Level Washington Center
Thu 03:35:30 PM 34.8661 -76.6553 203° Southwest 399 459 36,000  Level Washington Center
Thu 03:36:31 PM 34.7653 -76.7097 204° Southwest 399 459 36,000  Level Washington Center
Thu 03:37:31 PM 34.6606 -76.7636 203° Southwest 399 459 36,000  Level Washington Center
Thu 03:38:32 PM 34.5600 -76.8128 202° Southwest 399 459 36,000  Level Washington Center
Thu 03:39:31 PM 34.4550 -76.8642 202° Southwest 399 459 36,000  Level Washington Center
Thu 03:40:31 PM 34.3503 -76.9153 202° Southwest 399 459 36,000  Level Washington Center
Thu 03:41:32 PM 34.2475 -76.9689 203° Southwest 399 459 36,000  Level Washington Center
Thu 03:42:33 PM 34.1425 -77.0197 202° Southwest 399 459 36,000  Level Washington Center
Thu 03:44:08 PM 33.9728 -77.1033 202° Southwest 409 471 36,000  Level Jacksonville Center
Thu 03:45:08 PM 33.8708 -77.1550 203° Southwest 409 471 36,000  Level Jacksonville Center
Thu 03:46:08 PM 33.7647 -77.2069 202° Southwest 409 471 36,000  Level Jacksonville Center
Thu 03:47:08 PM 33.6625 -77.2586 203° Southwest 409 471 36,000  Level Jacksonville Center
Thu 03:48:08 PM 33.5564 -77.3100 202° Southwest 409 471 36,000  Level Jacksonville Center
Thu 03:49:08 PM 33.4503 -77.3617 202° Southwest 409 471 36,000  Level Jacksonville Center
Thu 03:50:08 PM 33.3439 -77.4131 202° Southwest 409 471 36,000  Level Jacksonville Center
Thu 03:51:08 PM 33.2397 -77.4642 202° Southwest 409 471 36,000  Level Jacksonville Center
Thu 03:52:08 PM 33.1333 -77.5153 202° Southwest 409 471 36,000  Level Jacksonville Center
Thu 03:53:08 PM 33.0292 -77.5686 203° Southwest 409 471 36,000  Level Jacksonville Center
Thu 03:54:08 PM 32.9228 -77.6194 202° Southwest 409 471 36,000  Level Jacksonville Center
Thu 03:55:08 PM 32.8186 -77.6700 202° Southwest 409 471 36,000  Level Jacksonville Center
Thu 03:56:08 PM 32.7122 -77.7206 202° Southwest 409 471 36,000  Level Jacksonville Center
Thu 03:57:08 PM 32.6075 -77.7683 201° Southwest 409 471 36,000  Level Jacksonville Center
Thu 03:58:08 PM 32.5031 -77.8186 202° Southwest 409 471 36,000  Level Jacksonville Center
Thu 03:59:08 PM 32.3967 -77.8689 202° Southwest 409 471 36,000  Level Jacksonville Center
Thu 04:00:08 PM 32.2942 -77.9186 202° Southwest 409 471 36,000  Level Jacksonville Center
Thu 04:01:08 PM 32.1878 -77.9711 203° Southwest 409 471 36,000  Level Jacksonville Center
Thu 04:02:08 PM 32.0831 -78.0183 201° Southwest 409 471 36,000  Level Jacksonville Center
Thu 04:03:08 PM 31.9767 -78.0681 202° Southwest 409 471 36,000  Level Jacksonville Center
Thu 04:04:08 PM 31.8717 -78.1128 200° South 409 471 36,000  Level Jacksonville Center
Thu 04:05:08 PM 31.7675 -78.1669 204° Southwest 409 471 36,000  Level Jacksonville Center
Thu 04:06:08 PM 31.6608 -78.2211 203° Southwest 409 471 36,000  Level Jacksonville Center
Thu 04:07:08 PM 31.5561 -78.2703 202° Southwest 409 471 36,000  Level Jacksonville Center
Thu 04:08:08 PM 31.4475 -78.3219 202° Southwest 414 476 36,000  Level Jacksonville Center
Thu 04:09:08 PM 31.3447 -78.3683 201° Southwest 409 471 36,000  Level Jacksonville Center
Thu 04:10:08 PM 31.2358 -78.4197 202° Southwest 409 471 36,000  Level Jacksonville Center
Thu 04:11:08 PM 31.1311 -78.4683 202° Southwest 409 471 36,000  Level Jacksonville Center
Thu 04:12:08 PM 31.0142 -78.5225 202° Southwest 416 479 36,000  Level Jacksonville Center
Thu 04:13:08 PM 30.9133 -78.5683 201° Southwest 416 479 36,000  Level Jacksonville Center
Thu 04:14:08 PM 30.8086 -78.6189 203° Southwest 416 479 36,000  Level Jacksonville Center
Thu 04:15:08 PM 30.7017 -78.6672 201° Southwest 416 479 36,000  Level Jacksonville Center
Thu 04:16:39 PM 30.5267 -78.7142 193° South 419 482 36,000  Level Miami Center
Thu 04:17:39 PM 30.4119 -78.7364 189° South 419 482 36,000  Level Miami Center
Thu 04:18:39 PM 30.2928 -78.7583 189° South 430 495 36,000  Level Miami Center
Thu 04:19:39 PM 30.1717 -78.7778 188° South 430 495 36,000  Level Miami Center
Thu 04:20:39 PM 30.0669 -78.7975 189° South 423 487 36,000  Level Miami Center
Thu 04:21:39 PM 29.9375 -78.8261 191° South 423 487 36,000  Level Miami Center
Thu 04:22:39 PM 29.8203 -78.8456 188° South 429 494 36,000  Level Miami Center
Thu 04:23:39 PM 29.7033 -78.8625 187° South 429 494 36,000  Level Miami Center
Thu 04:24:39 PM 29.5864 -78.8769 186° South 429 494 36,000  Level Miami Center
Thu 04:25:39 PM 29.4672 -78.8892 185° South 429 494 36,000  Level Miami Center
Thu 04:26:39 PM 29.3544 -78.9083 188° South 429 494 36,000  Level Miami Center
Thu 04:27:39 PM 29.2372 -78.9231 186° South 423 487 36,000  Level Miami Center
Thu 04:28:39 PM 29.1183 -78.9375 186° South 423 487 36,000  Level Miami Center
Thu 04:29:39 PM 29.0033 -78.9517 186° South 428 493 36,000  Level Miami Center
Thu 04:30:39 PM 28.8903 -78.9664 187° South 428 493 36,000  Level Miami Center
Thu 04:31:39 PM 28.7733 -78.9831 187° South 422 486 36,000  Level Miami Center
Thu 04:32:39 PM 28.6561 -78.9972 186° South 428 493 36,000  Level Miami Center
Thu 04:33:39 PM 28.5411 -79.0117 186° South 428 493 36,000  Level Miami Center
Thu 04:34:39 PM 28.4261 -79.0261 186° South 428 493 36,000  Level Miami Center
Thu 04:35:39 PM 28.3111 -79.0475 189° South 428 493 36,000  Level Miami Center
Thu 04:36:39 PM 28.2000 -79.0806 195° South 428 493 36,000  Level Miami Center
Thu 04:37:39 PM 28.0867 -79.1161 195° South 421 484 36,000  Level Miami Center
Thu 04:38:39 PM 27.9775 -79.1467 194° South 416 479 36,000 -400 Level Miami Center
Thu 04:39:39 PM 27.8686 -79.1822 196° South 416 479 35,200 -1,150 Descending Miami Center
Thu 04:40:39 PM 27.7531 -79.2172 195° South 422 486 33,700 -1,650 Descending Miami Center
Thu 04:41:39 PM 27.6419 -79.2503 195° South 422 486 31,900 -1,750 Descending Miami Center
Thu 04:42:39 PM 27.5453 -79.2764 193° South 412 474 30,200 -1,650 Descending Miami Center
Thu 04:43:39 PM 27.4364 -79.3092 195° South 406 467 28,600 -1,750 Descending Miami Center
Thu 04:44:39 PM 27.3208 -79.3464 196° South 401 461 26,700 -1,750 Descending Miami Center
Thu 04:45:39 PM 27.2200 -79.3769 195° South 396 456 25,100 -1,350 Descending Miami Center
Thu 04:46:39 PM 27.1172 -79.4097 196° South 390 449 24,000 -900 Descending Miami Center
Thu 04:47:39 PM 27.0228 -79.4356 194° South 388 447 23,300 -1,250 Descending Miami Center
Thu 04:48:39 PM 26.9156 -79.4683 195° South 398 458 21,500 -1,500 Descending Miami Center
Thu 04:49:39 PM 26.8019 -79.5075 197° South 392 451 20,300 -1,050 Descending Miami Center
Thu 04:50:39 PM 26.7161 -79.5311 194° South 378 435 19,400 -1,135 Descending Miami Center
Thu 04:51:30 PM 26.6256 -79.5686 200° South 348 400 18,200 -1,400 Descending Miami Center
Thu 04:51:39 PM 26.6150 -79.5731 201° Southwest 359 413 18,000 -783 Descending Miami Center
Thu 04:52:39 PM 26.5369 -79.6178 207° Southwest 348 400 17,300 -844 Descending Miami Center
Thu 04:52:43 PM 26.5242 -79.6289 218° Southwest 334 384 17,100 -1,100 Descending Miami Center
Thu 04:53:39 PM 26.4786 -79.7092 238° Southwest 327 376 16,200 -1,000 Descending Miami Center
Thu 04:53:43 PM 26.4744 -79.7183 243° Southwest 332 382 16,100 -203 Descending Miami Center
Thu 04:54:38 PM 26.4289 -79.7961 237° Southwest 326 375 16,000 -107 Descending Miami Center
Thu 04:54:39 PM 26.4353 -79.7869 52° Northeast 334 384 16,000  Level Miami Center
Thu 04:55:39 PM 26.3814 -79.8783 237° Southwest 334 384 16,000 -350 Level Miami Center
Thu 04:56:39 PM 26.3214 -79.9419 224° Southwest 334 384 15,300 -689 Descending Miami Center
Thu 04:56:40 PM 26.3150 -79.9486 223° Southwest 322 371 15,300 -1,100 Level Miami Center
Thu 04:57:39 PM 26.2508 -80.0164 223° Southwest 323 372 14,200 -1,180 Descending Miami Center
Thu 04:57:41 PM 26.2447 -80.0164 180° South 324 373 14,100 -1,000 Descending Miami Center
Thu 04:58:39 PM 26.1628 -80.0419 196° South 316 364 13,200 -900 Descending Miami Center
Thu 04:58:41 PM 26.1500 -80.0439 188° South 331 381 13,200 -957 Level Miami Center
Thu 04:59:48 PM 26.0556 -80.0714 195° South 330 380 12,100 -1,017 Descending Miami Center
Thu 05:00:39 PM 25.9861 -80.0881 192° South 327 376 11,200 -984 Descending Miami Center
Thu 05:00:49 PM 25.9672 -80.0967 202° Southwest 319 367 11,100 -845 Descending Miami Center
Thu 05:01:50 PM 25.9153 -80.1739 233° Southwest 309 356 10,200 -689 Descending Miami Center
Thu 05:02:51 PM 25.8883 -80.2608 251° West 286 329 9,700 -1,230 Descending Miami Center
Thu 05:03:52 PM 25.8778 -80.3506 263° West 279 321 7,700 -1,721 Descending Miami Center
Thu 05:04:53 PM 25.8717 -80.4336 265° West 260 299 6,200 -1,119 Descending Miami Center
Thu 05:06:06 PM 25.8428 -80.5042 246° West 194 223 5,200 -1,359 Descending Miami Center
Thu 05:07:01 PM 25.7969 -80.5028 178° South 196 226 3,300 -1,722 Descending Miami Center
Thu 05:08:01 PM 25.7772 -80.4539 114° Southeast 161 185 1,900 -893 Descending Miami Center
Thu 05:09:02 PM 25.7806 -80.4056 86° East 161 185 1,500 -541 Descending Miami Center
Thu 05:10:03 PM 25.7814 -80.3594 89° East 125 144 800 -689 Descending Miami Center
Thu 05:11:04 PM 25.7844 -80.3203 85° East 125 144 100 -689 Descending Miami Center
Thu 05:13:00 PM 25.7833 -80.2833 103° East  Level FlightAware Approximate

Login

Don't have an account? Register now (free) for customized features, flight alerts, and more!